createdAt,value
2023-06-18T00:00:36.096Z,19.50
2023-06-18T00:06:01.660Z,16.10
2023-06-18T00:11:04.585Z,17.80
2023-06-18T00:16:07.444Z,15.90
2023-06-18T00:21:12.172Z,15.80
2023-06-18T00:26:15.147Z,17.10
2023-06-18T00:31:19.326Z,16.30
2023-06-18T00:36:22.187Z,13.20
2023-06-18T00:41:28.886Z,16.90
2023-06-18T00:46:32.132Z,18.70
2023-06-18T00:51:36.239Z,17.00
2023-06-18T00:56:39.527Z,16.60
2023-06-18T01:01:42.480Z,17.20
2023-06-18T01:06:46.875Z,16.10
2023-06-18T01:11:54.902Z,17.50
2023-06-18T01:17:00.223Z,12.40
2023-06-18T01:22:13.035Z,19.40
2023-06-18T01:27:17.741Z,15.90
2023-06-18T01:32:21.428Z,15.70
2023-06-18T01:37:49.708Z,16.50
2023-06-18T01:43:12.810Z,15.70
2023-06-18T01:48:19.131Z,15.40
2023-06-18T01:53:25.566Z,15.10
2023-06-18T01:58:32.925Z,19.40
2023-06-18T02:03:36.089Z,18.60
2023-06-18T02:08:39.045Z,15.70
2023-06-18T02:13:41.970Z,19.60
2023-06-18T02:18:44.763Z,18.60
2023-06-18T02:23:47.596Z,19.10
2023-06-18T02:28:50.518Z,17.90
2023-06-18T02:33:53.329Z,16.50
2023-06-18T02:38:56.685Z,19.30
2023-06-18T02:43:59.656Z,19.80
2023-06-18T02:49:03.099Z,16.60
2023-06-18T02:54:05.882Z,19.30
2023-06-18T02:59:08.872Z,19.70
2023-06-18T03:04:12.940Z,19.60
2023-06-18T03:09:16.081Z,16.90
2023-06-18T03:14:21.611Z,11.90
2023-06-18T03:19:24.645Z,19.20
2023-06-18T03:24:28.312Z,17.30
2023-06-18T03:29:31.517Z,18.00
2023-06-18T03:34:34.969Z,20.20
2023-06-18T03:39:37.737Z,17.50
2023-06-18T03:44:40.705Z,16.60
2023-06-18T03:49:43.607Z,18.20
2023-06-18T03:54:47.099Z,15.50
2023-06-18T03:59:53.030Z,17.40
2023-06-18T04:04:56.387Z,15.70
2023-06-18T04:09:59.161Z,16.90
2023-06-18T04:15:02.347Z,13.20
2023-06-18T04:20:06.378Z,15.00
2023-06-18T04:25:10.138Z,14.70
2023-06-18T04:30:13.037Z,16.30
2023-06-18T04:35:15.971Z,16.60
2023-06-18T04:40:19.693Z,16.40
2023-06-18T04:45:22.671Z,15.00
2023-06-18T04:50:25.832Z,14.00
2023-06-18T04:55:29.683Z,16.20
2023-06-18T05:00:34.509Z,15.40
2023-06-18T05:05:37.294Z,15.40
2023-06-18T05:10:40.133Z,13.00
2023-06-18T05:15:43.093Z,14.50
2023-06-18T05:20:46.398Z,17.10
2023-06-18T05:25:49.261Z,14.60
2023-06-18T05:30:52.222Z,13.40
2023-06-18T05:35:55.197Z,13.70
2023-06-18T05:40:58.022Z,13.70
2023-06-18T05:46:01.068Z,12.20
2023-06-18T05:51:04.251Z,14.10
2023-06-18T05:56:07.122Z,15.10
2023-06-18T06:01:10.532Z,11.60
2023-06-18T06:06:13.550Z,11.60
2023-06-18T06:11:16.372Z,10.40
2023-06-18T06:16:19.238Z,10.00
2023-06-18T06:21:22.081Z,8.80
2023-06-18T06:26:25.060Z,11.30
2023-06-18T06:31:27.894Z,8.40
2023-06-18T06:36:30.772Z,8.40
2023-06-18T06:41:33.634Z,8.70
2023-06-18T06:46:36.427Z,8.40
2023-06-18T06:51:39.610Z,8.50
2023-06-18T06:56:42.410Z,9.10
2023-06-18T07:01:46.164Z,6.80
2023-06-18T07:06:49.374Z,7.10
2023-06-18T07:11:52.356Z,6.50
2023-06-18T07:16:55.293Z,5.90
2023-06-18T07:21:58.202Z,6.90
2023-06-18T07:27:01.172Z,5.40
2023-06-18T07:32:04.177Z,5.30
2023-06-18T07:37:07.184Z,4.40
2023-06-18T07:42:10.067Z,5.50
2023-06-18T07:47:13.062Z,5.60
2023-06-18T07:52:15.850Z,6.00
2023-06-18T07:57:18.913Z,6.30
2023-06-18T08:02:21.814Z,6.60
2023-06-18T08:07:24.636Z,7.80
2023-06-18T08:12:27.422Z,9.50
2023-06-18T08:17:30.262Z,6.30
2023-06-18T08:22:33.538Z,5.50
2023-06-18T08:27:36.600Z,6.30
2023-06-18T08:32:39.982Z,7.30
2023-06-18T08:37:43.776Z,5.80
2023-06-18T08:42:58.532Z,5.30
2023-06-18T08:48:19.991Z,5.60
2023-06-18T08:53:39.532Z,5.90
2023-06-18T08:58:51.824Z,4.80
2023-06-18T09:03:56.420Z,5.20
2023-06-18T09:09:02.128Z,5.10
2023-06-18T09:14:05.190Z,5.80
2023-06-18T09:19:09.426Z,6.00
2023-06-18T09:24:21.860Z,5.20
2023-06-18T09:29:29.810Z,5.50
2023-06-18T09:34:32.916Z,4.90
2023-06-18T09:39:41.636Z,4.50
2023-06-18T09:44:46.534Z,4.60
2023-06-18T09:49:49.739Z,5.90
2023-06-18T09:54:52.752Z,4.70
2023-06-18T10:00:12.716Z,4.20
2023-06-18T10:05:16.412Z,4.80
2023-06-18T10:10:19.848Z,4.80
2023-06-18T10:15:27.230Z,5.70
2023-06-18T10:20:30.539Z,10.00
2023-06-18T10:25:34.647Z,5.60
2023-06-18T10:30:38.032Z,4.50
2023-06-18T10:35:41.692Z,5.50
2023-06-18T10:40:44.721Z,4.40
2023-06-18T10:46:17.936Z,4.70
2023-06-18T10:51:20.924Z,5.90
2023-06-18T10:56:23.673Z,4.90
2023-06-18T11:01:27.642Z,4.70
2023-06-18T11:06:31.620Z,5.40
2023-06-18T11:11:34.885Z,5.40
2023-06-18T11:16:38.453Z,5.10
2023-06-18T11:21:46.925Z,10.40
2023-06-18T11:26:50.887Z,5.60
2023-06-18T11:31:53.670Z,7.10
2023-06-18T11:36:56.517Z,5.70
2023-06-18T11:42:21.022Z,6.10
2023-06-18T11:47:24.014Z,5.00
2023-06-18T11:52:28.617Z,7.70
2023-06-18T11:57:32.066Z,5.80
2023-06-18T12:02:35.083Z,5.20
2023-06-18T12:07:45.958Z,5.70
2023-06-18T12:12:57.186Z,6.10
2023-06-18T12:18:20.292Z,5.50
2023-06-18T12:23:23.950Z,5.20
2023-06-18T12:28:26.873Z,7.80
2023-06-18T12:33:29.776Z,10.40
2023-06-18T12:38:47.005Z,7.90
2023-06-18T12:43:50.425Z,7.50
2023-06-18T12:48:53.923Z,7.30
2023-06-18T12:53:56.849Z,7.40
2023-06-18T12:59:02.913Z,7.70
2023-06-18T13:04:05.935Z,7.30
2023-06-18T13:09:09.415Z,8.00
2023-06-18T13:14:25.954Z,8.20
2023-06-18T13:19:40.487Z,9.00
2023-06-18T13:24:46.553Z,7.30
2023-06-18T13:29:49.483Z,8.70
2023-06-18T13:34:52.901Z,8.10
2023-06-18T13:39:55.980Z,9.80
2023-06-18T13:45:00.639Z,8.60
2023-06-18T13:50:04.838Z,10.40
2023-06-18T13:55:08.723Z,8.30
2023-06-18T14:00:12.754Z,10.60
2023-06-18T14:05:15.999Z,9.60
2023-06-18T14:10:19.162Z,7.90
2023-06-18T14:15:22.156Z,8.50
2023-06-18T14:20:25.564Z,7.90
2023-06-18T14:25:29.044Z,8.90
2023-06-18T14:30:32.605Z,7.10
2023-06-18T14:35:35.388Z,8.20
2023-06-18T14:40:38.392Z,10.30
2023-06-18T14:45:41.287Z,7.60
2023-06-18T14:50:45.541Z,7.10
2023-06-18T14:55:48.436Z,7.70
2023-06-18T15:00:51.391Z,7.40
2023-06-18T15:05:54.556Z,7.50
2023-06-18T15:10:57.385Z,7.20
2023-06-18T15:16:00.260Z,7.70
2023-06-18T15:21:03.063Z,7.20
2023-06-18T15:26:06.227Z,7.40
2023-06-18T15:31:12.419Z,7.20
2023-06-18T15:36:15.894Z,6.90
2023-06-18T15:41:18.779Z,6.50
2023-06-18T15:46:21.679Z,7.40
2023-06-18T15:51:24.689Z,7.40
2023-06-18T15:56:27.515Z,6.50
2023-06-18T16:01:31.920Z,6.80
2023-06-18T16:06:34.681Z,7.70
2023-06-18T16:11:37.597Z,6.90
2023-06-18T16:16:40.542Z,9.20
2023-06-18T16:21:43.579Z,8.10
2023-06-18T16:26:46.475Z,6.40
2023-06-18T16:31:49.382Z,6.40
2023-06-18T16:36:53.086Z,6.80
2023-06-18T16:41:56.119Z,8.00
2023-06-18T16:46:58.949Z,7.50
2023-06-18T16:52:01.961Z,6.80
2023-06-18T16:57:05.419Z,7.60
2023-06-18T17:02:08.236Z,6.90
2023-06-18T17:07:11.226Z,8.60
2023-06-18T17:12:14.541Z,6.60
2023-06-18T17:17:17.456Z,8.10
2023-06-18T17:22:20.453Z,8.00
2023-06-18T17:27:24.081Z,7.70
2023-06-18T17:32:27.001Z,7.60
2023-06-18T17:37:29.994Z,8.00
2023-06-18T17:42:32.754Z,8.00
2023-06-18T17:47:36.051Z,7.90
2023-06-18T17:52:38.908Z,7.90
2023-06-18T17:57:42.239Z,10.10
2023-06-18T18:02:45.111Z,9.40
2023-06-18T18:07:48.779Z,10.00
2023-06-18T18:12:51.559Z,9.00
2023-06-18T18:17:54.379Z,8.90
2023-06-18T18:22:57.181Z,9.30
2023-06-18T18:27:59.969Z,9.50
2023-06-18T18:33:02.865Z,9.20
2023-06-18T18:38:05.860Z,8.70
2023-06-18T18:43:08.768Z,8.20
2023-06-18T18:48:12.421Z,7.70
2023-06-18T18:53:15.330Z,8.50
2023-06-18T18:58:18.551Z,9.30
2023-06-18T19:03:21.661Z,8.90
2023-06-18T19:08:25.157Z,7.80
2023-06-18T19:13:28.032Z,7.90
2023-06-18T19:18:33.281Z,7.40
2023-06-18T19:23:36.662Z,8.40
2023-06-18T19:28:39.509Z,8.30
2023-06-18T19:33:42.739Z,8.30
2023-06-18T19:38:46.012Z,9.70
2023-06-18T19:43:48.967Z,9.20
2023-06-18T19:48:52.693Z,10.40
2023-06-18T19:53:55.674Z,10.50
2023-06-18T19:58:58.972Z,9.40
2023-06-18T20:04:02.138Z,9.30
2023-06-18T20:09:05.345Z,10.70
2023-06-18T20:14:08.244Z,11.70
2023-06-18T20:19:11.221Z,11.80
2023-06-18T20:24:14.163Z,17.10
2023-06-18T20:29:17.287Z,10.70
2023-06-18T20:34:20.140Z,12.10
2023-06-18T20:39:23.605Z,11.10
2023-06-18T20:44:26.617Z,11.80
2023-06-18T20:49:30.498Z,12.60
2023-06-18T20:54:34.372Z,13.60
2023-06-18T20:59:37.961Z,12.20
2023-06-18T21:04:40.755Z,11.90
2023-06-18T21:09:43.881Z,15.40
2023-06-18T21:14:46.716Z,11.40
2023-06-18T21:19:49.472Z,13.80
2023-06-18T21:24:52.285Z,13.50
2023-06-18T21:29:55.107Z,15.70
2023-06-18T21:34:57.908Z,12.30
2023-06-18T21:40:01.573Z,12.70
2023-06-18T21:45:05.102Z,11.50
2023-06-18T21:50:09.747Z,13.10
2023-06-18T21:55:14.004Z,11.30
2023-06-18T22:00:19.719Z,14.90
2023-06-18T22:05:22.962Z,13.50
2023-06-18T22:10:26.109Z,11.50
2023-06-18T22:15:29.201Z,13.50
2023-06-18T22:20:32.190Z,12.00
2023-06-18T22:25:35.106Z,17.30
2023-06-18T22:30:38.217Z,15.30
2023-06-18T22:35:41.064Z,14.20
2023-06-18T22:40:43.881Z,12.60
2023-06-18T22:45:46.780Z,14.10
2023-06-18T22:50:49.914Z,13.60
2023-06-18T22:55:52.713Z,14.30
2023-06-18T23:00:56.431Z,13.90
2023-06-18T23:05:59.360Z,17.30
2023-06-18T23:11:03.190Z,15.00
2023-06-18T23:16:06.112Z,14.30
2023-06-18T23:21:09.766Z,12.40
2023-06-18T23:26:12.633Z,10.80
2023-06-18T23:31:17.221Z,12.10
2023-06-18T23:36:20.265Z,13.30
2023-06-18T23:41:23.169Z,12.20
2023-06-18T23:46:25.989Z,13.30
2023-06-18T23:51:28.929Z,12.20
2023-06-18T23:56:31.676Z,11.40
